Time;durP1;ratioP1;P1;durP2;ratioP2;P2;SDS_P1;SDS_P2;PMS_P1;PMS_P2;Temp;Humidity;BMP_temperature;BMP_pressure;BME280_temperature;BME280_humidity;BME280_pressure;Samples;Min_cycle;Max_cycle;Signal;HPM_P1;HPM_P2
2023/06/21 00:01:29;;;;;;;6.32;4.60;;;;;;;12.90;62.82;99358.72;4950138;28;20046;-67
2023/06/21 00:03:54;;;;;;;9.60;3.90;;;;;;;12.87;63.13;99372.38;4953699;28;20826;-65
2023/06/21 00:06:19;;;;;;;6.68;4.43;;;;;;;12.81;63.32;99360.38;4970811;28;20049;-67
2023/06/21 00:08:48;;;;;;;7.53;3.55;;;;;;;12.78;63.49;99368.66;4955503;28;20050;-66
2023/06/21 00:11:13;;;;;;;4.63;4.05;;;;;;;12.74;64.01;99367.25;4955547;28;20038;-67
2023/06/21 00:13:38;;;;;;;4.78;3.85;;;;;;;12.69;64.26;99378.31;4955735;28;20050;-68
2023/06/21 00:16:03;;;;;;;7.15;4.55;;;;;;;12.66;64.87;99367.00;4954240;28;20046;-68
2023/06/21 00:18:28;;;;;;;7.72;4.03;;;;;;;12.63;64.85;99362.78;4953769;28;20678;-67
2023/06/21 00:20:59;;;;;;;6.60;4.60;;;;;;;12.59;65.31;99388.09;4955263;28;20038;-68
2023/06/21 00:23:24;;;;;;;7.78;4.32;;;;;;;12.57;65.91;99373.16;4955348;28;20054;-69
2023/06/21 00:25:49;;;;;;;9.80;4.70;;;;;;;12.53;65.71;99383.25;4953774;28;20050;-69
2023/06/21 00:28:15;;;;;;;7.45;4.75;;;;;;;12.53;66.18;99377.03;4937879;28;20061;-68
2023/06/21 00:30:41;;;;;;;7.50;4.40;;;;;;;12.50;66.29;99383.50;4954854;28;20501;-66
2023/06/21 00:33:06;;;;;;;8.70;4.97;;;;;;;12.48;66.76;99385.47;4968445;28;20038;-64
2023/06/21 00:35:32;;;;;;;5.95;4.40;;;;;;;12.44;66.88;99400.06;4953453;28;20489;-66
2023/06/21 00:37:57;;;;;;;7.68;4.60;;;;;;;12.43;66.99;99384.13;4953451;28;20050;-66
2023/06/21 00:40:25;;;;;;;11.80;4.95;;;;;;;12.38;67.58;99405.91;4970560;28;20050;-64
2023/06/21 00:42:54;;;;;;;9.15;5.28;;;;;;;12.38;67.66;99399.72;4955202;28;20054;-66
2023/06/21 00:45:20;;;;;;;12.20;4.82;;;;;;;12.34;67.32;99405.31;4954237;28;20050;-64
2023/06/21 00:47:45;;;;;;;11.70;5.30;;;;;;;12.34;67.57;99385.75;4937658;28;20054;-65
2023/06/21 00:50:12;;;;;;;9.63;4.68;;;;;;;12.32;67.82;99399.25;4951571;28;20517;-65
2023/06/21 00:52:39;;;;;;;7.93;4.88;;;;;;;12.30;67.81;99397.69;4955165;28;20047;-66
2023/06/21 00:55:05;;;;;;;12.45;4.95;;;;;;;12.28;68.00;99405.84;4970581;28;20046;-66
2023/06/21 00:57:31;;;;;;;6.50;4.38;;;;;;;12.25;68.12;99402.56;4964140;28;20064;-66
2023/06/21 00:59:56;;;;;;;9.60;4.88;;;;;;;12.25;68.49;99390.03;4970070;28;20493;-67
2023/06/21 01:02:22;;;;;;;6.60;4.82;;;;;;;12.24;68.55;99395.50;4955012;28;20057;-65
2023/06/21 01:04:49;;;;;;;6.22;4.43;;;;;;;12.23;68.81;99408.03;4953889;28;20057;-64
2023/06/21 01:08:00;;;;;;;8.90;5.47;;;;;;;12.30;69.45;99403.03;4955740;28;20053;-67
2023/06/21 01:10:47;;;;;;;9.27;5.72;;;;;;;12.25;69.17;99405.22;4920186;28;20051;-65
2023/06/21 01:13:19;;;;;;;16.20;5.72;;;;;;;12.28;69.20;99399.63;4920641;28;20042;-66
2023/06/21 01:15:54;;;;;;;8.65;5.03;;;;;;;12.26;69.37;99406.94;4920410;28;20055;-65
2023/06/21 01:18:22;;;;;;;8.38;4.90;;;;;;;12.23;69.20;99407.19;4930007;28;20039;-67
2023/06/21 01:20:53;;;;;;;7.43;4.65;;;;;;;12.24;69.50;99398.19;4917729;29;20070;-68
2023/06/21 01:23:26;;;;;;;8.30;5.32;;;;;;;12.27;70.01;99408.63;4927389;28;20069;-68
2023/06/21 01:25:57;;;;;;;9.25;6.43;;;;;;;12.25;69.91;99411.44;4919258;28;20164;-66
2023/06/21 01:28:49;;;;;;;7.47;4.85;;;;;;;12.28;70.07;99416.53;4914265;28;20061;-66
2023/06/21 01:31:15;;;;;;;10.07;4.88;;;;;;;12.25;69.62;99410.56;4916978;28;20042;-63
2023/06/21 01:33:42;;;;;;;9.57;5.35;;;;;;;12.26;69.96;99417.63;4904966;28;20081;-66
2023/06/21 01:36:09;;;;;;;8.98;5.57;;;;;;;12.27;70.17;99430.88;4936817;28;20559;-65
2023/06/21 01:38:34;;;;;;;9.75;5.07;;;;;;;12.30;70.26;99424.44;4936949;28;20150;-65
2023/06/21 01:40:59;;;;;;;11.13;5.32;;;;;;;12.31;70.56;99420.75;4936917;28;20085;-65
2023/06/21 01:43:25;;;;;;;8.88;5.22;;;;;;;12.33;70.59;99427.69;4936821;28;20085;-65
2023/06/21 01:45:52;;;;;;;10.30;4.78;;;;;;;12.35;70.81;99427.56;4936805;28;20046;-65
2023/06/21 01:48:18;;;;;;;12.70;6.03;;;;;;;12.38;70.74;99432.66;4952870;28;20062;-65
2023/06/21 01:50:44;;;;;;;7.90;4.63;;;;;;;12.41;70.96;99427.06;4956775;28;20050;-65
2023/06/21 01:53:13;;;;;;;12.10;5.70;;;;;;;12.44;70.65;99421.44;4957798;28;20054;-65
2023/06/21 01:55:41;;;;;;;8.27;5.60;;;;;;;12.48;70.94;99428.25;4940619;28;20046;-65
2023/06/21 01:58:06;;;;;;;11.02;5.43;;;;;;;12.52;70.56;99445.75;4956803;28;20049;-68
2023/06/21 02:00:31;;;;;;;8.00;4.80;;;;;;;12.56;70.77;99438.28;4956985;28;20062;-65
2023/06/21 02:03:03;;;;;;;9.27;5.10;;;;;;;12.62;70.93;99435.97;4956770;28;20038;-66
2023/06/21 02:05:32;;;;;;;9.65;5.22;;;;;;;12.67;70.64;99438.25;4940142;28;20501;-68
2023/06/21 02:08:00;;;;;;;10.13;5.82;;;;;;;12.71;70.56;99445.91;4956864;28;20386;-67
2023/06/21 02:10:25;;;;;;;9.57;6.18;;;;;;;12.79;70.50;99441.72;4949078;28;20057;-68
2023/06/21 02:12:54;;;;;;;8.90;6.03;;;;;;;12.84;70.31;99442.22;4953164;28;20043;-69
2023/06/21 02:15:19;;;;;;;11.27;6.07;;;;;;;12.90;69.86;99444.34;4956859;28;20065;-66
2023/06/21 02:17:48;;;;;;;11.18;7.18;;;;;;;12.97;69.89;99472.31;4971523;28;20440;-68
2023/06/21 02:20:14;;;;;;;13.32;7.68;;;;;;;13.05;69.33;99453.78;4955553;28;20061;-68
2023/06/21 02:22:41;;;;;;;8.90;5.95;;;;;;;13.13;69.14;99445.94;4955367;28;20057;-67
2023/06/21 02:25:09;;;;;;;11.25;6.00;;;;;;;13.21;68.99;99443.47;4939859;28;20053;-68
2023/06/21 02:27:34;;;;;;;16.75;7.15;;;;;;;13.28;69.31;99443.81;4957322;28;20042;-68
2023/06/21 02:29:59;;;;;;;11.07;7.40;;;;;;;13.36;68.60;99452.88;4952181;28;20038;-67
2023/06/21 02:32:24;;;;;;;11.00;6.90;;;;;;;13.45;68.39;99446.72;4972777;28;20038;-67
2023/06/21 02:34:50;;;;;;;14.68;6.85;;;;;;;13.54;67.67;99450.47;4957214;28;20045;-68
2023/06/21 02:37:15;;;;;;;13.32;7.05;;;;;;;13.62;67.68;99479.25;4954724;28;20489;-69
2023/06/21 02:39:42;;;;;;;12.85;6.13;;;;;;;13.72;66.96;99445.31;4955495;28;20458;-69
2023/06/21 02:42:09;;;;;;;12.68;6.85;;;;;;;13.81;66.98;99441.81;4957034;28;20046;-68
2023/06/21 02:44:35;;;;;;;13.95;7.43;;;;;;;13.90;66.90;99419.56;4956823;28;20046;-69
2023/06/21 02:47:01;;;;;;;14.70;6.93;;;;;;;14.01;66.24;99448.94;4955739;28;20428;-69
2023/06/21 02:49:26;;;;;;;15.55;7.05;;;;;;;14.10;66.21;99445.47;4955467;28;20475;-70
2023/06/21 02:51:52;;;;;;;12.30;6.50;;;;;;;14.21;65.52;99452.56;4955792;28;20054;-70
2023/06/21 02:54:17;;;;;;;12.15;6.90;;;;;;;14.29;65.55;99436.63;4955258;28;20405;-68
2023/06/21 02:56:43;;;;;;;12.57;7.07;;;;;;;14.42;64.97;99433.72;4956122;28;20038;-69
2023/06/21 02:59:10;;;;;;;14.00;7.32;;;;;;;14.53;64.13;99461.25;4938587;28;20543;-71
2023/06/21 03:01:35;;;;;;;10.60;7.53;;;;;;;14.63;63.20;99455.91;4956620;28;20515;-69
2023/06/21 03:04:01;;;;;;;9.00;6.63;;;;;;;14.69;62.64;99460.69;4956695;28;20034;-69
2023/06/21 03:06:29;;;;;;;13.40;7.47;;;;;;;14.79;62.74;99455.31;4956885;28;20070;-69
2023/06/21 03:08:54;;;;;;;8.98;6.35;;;;;;;14.87;63.02;99463.53;4955409;28;20042;-62
2023/06/21 03:11:19;;;;;;;10.38;6.50;;;;;;;14.98;61.88;99466.09;4951580;28;20042;-63
2023/06/21 03:13:45;;;;;;;13.55;7.40;;;;;;;15.11;61.80;99466.66;4955501;28;20046;-63
2023/06/21 03:16:10;;;;;;;12.25;6.35;;;;;;;15.15;61.16;99461.81;4955993;28;20045;-70
2023/06/21 03:18:36;;;;;;;10.48;7.22;;;;;;;15.27;61.44;99466.03;4955157;28;20049;-61
2023/06/21 03:21:01;;;;;;;13.48;6.85;;;;;;;15.39;60.66;99467.59;4955171;28;20061;-63
2023/06/21 03:23:28;;;;;;;11.43;6.93;;;;;;;15.51;60.14;99490.59;4956210;28;20050;-64
2023/06/21 03:25:54;;;;;;;9.65;6.75;;;;;;;15.54;58.93;99455.44;4955075;28;20053;-69
2023/06/21 03:28:20;;;;;;;9.70;6.63;;;;;;;15.54;58.70;99452.75;4955144;28;20046;-67
2023/06/21 03:30:45;;;;;;;9.55;6.85;;;;;;;15.63;58.31;99460.91;4955936;28;20046;-68
2023/06/21 03:33:11;;;;;;;10.60;7.00;;;;;;;15.74;57.91;99458.91;4938779;28;20050;-68
2023/06/21 03:35:36;;;;;;;12.00;6.82;;;;;;;15.89;57.97;99457.44;4954099;28;20117;-70
2023/06/21 03:38:02;;;;;;;10.02;6.85;;;;;;;15.99;57.35;99468.16;4954792;28;20049;-71
2023/06/21 03:40:34;;;;;;;13.77;6.82;;;;;;;16.12;57.42;99479.41;4957825;28;20051;-70
2023/06/21 03:42:59;;;;;;;12.07;6.47;;;;;;;16.19;56.91;99442.84;4955035;28;20048;-70
2023/06/21 03:45:24;;;;;;;11.93;6.43;;;;;;;16.35;56.62;99469.09;4955056;28;20057;-72
2023/06/21 03:47:54;;;;;;;12.52;7.47;;;;;;;16.51;56.25;99463.88;4971271;28;20053;-71
2023/06/21 03:50:19;;;;;;;8.82;6.90;;;;;;;16.71;55.83;99486.16;4971305;28;20050;-71
2023/06/21 03:52:46;;;;;;;10.52;7.03;;;;;;;16.83;55.05;99473.31;4955173;28;20841;-70
2023/06/21 03:55:12;;;;;;;7.68;6.03;;;;;;;16.87;54.61;99470.19;4938646;28;20050;-70
2023/06/21 03:57:38;;;;;;;9.82;6.40;;;;;;;16.97;53.96;99460.16;4970897;28;20049;-70
2023/06/21 04:00:06;;;;;;;10.98;7.00;;;;;;;17.02;53.58;99463.25;4955121;28;20050;-70
2023/06/21 04:02:41;;;;;;;10.27;5.90;;;;;;;17.12;52.79;99460.47;4954449;28;20413;-72
2023/06/21 04:05:09;;;;;;;11.20;6.30;;;;;;;17.24;52.60;99472.69;4954758;28;20050;-70
2023/06/21 04:07:36;;;;;;;8.57;5.05;;;;;;;17.45;52.37;99468.81;4956033;28;20507;-70
2023/06/21 04:10:02;;;;;;;7.72;5.55;;;;;;;17.62;51.97;99468.75;4954538;28;20050;-70
2023/06/21 04:12:31;;;;;;;9.30;5.40;;;;;;;17.75;51.56;99465.66;4956159;28;20493;-71
2023/06/21 04:14:57;;;;;;;8.40;5.65;;;;;;;17.91;50.95;99470.31;4955030;28;20046;-70
2023/06/21 04:17:23;;;;;;;5.70;4.85;;;;;;;18.04;49.94;99466.16;4971163;28;20057;-70
2023/06/21 04:19:48;;;;;;;7.95;5.20;;;;;;;18.22;50.08;99427.44;4938604;28;20061;-70
2023/06/21 04:22:15;;;;;;;7.50;5.35;;;;;;;18.37;49.61;99460.91;4954882;28;20068;-70
2023/06/21 04:24:40;;;;;;;11.07;5.75;;;;;;;18.56;49.35;99457.06;4954435;28;20549;-70
2023/06/21 04:27:06;;;;;;;7.35;5.22;;;;;;;18.68;48.32;99458.47;4954814;28;20049;-69
2023/06/21 04:29:36;;;;;;;7.57;4.65;;;;;;;18.80;47.50;99452.59;4956379;28;20054;-70
2023/06/21 04:32:02;;;;;;;9.02;5.10;;;;;;;18.98;46.97;99455.13;4970338;28;20053;-70
2023/06/21 04:34:27;;;;;;;6.28;4.40;;;;;;;19.05;45.82;99471.53;4955822;28;20412;-70
2023/06/21 04:36:53;;;;;;;6.85;4.75;;;;;;;19.08;45.81;99466.63;4954729;28;20773;-70
2023/06/21 04:39:21;;;;;;;7.80;4.72;;;;;;;19.18;44.70;99467.31;4938791;28;20908;-71
2023/06/21 04:41:46;;;;;;;11.63;4.80;;;;;;;19.37;45.07;99457.19;4957344;28;20046;-69
2023/06/21 04:44:12;;;;;;;6.28;4.95;;;;;;;19.64;45.45;99467.63;4959252;28;20133;-70
2023/06/21 04:46:38;;;;;;;6.72;4.82;;;;;;;19.90;45.04;99457.44;4958329;28;20046;-70
2023/06/21 04:49:07;;;;;;;18.10;5.28;;;;;;;20.16;44.73;99446.34;4959065;28;20500;-70
2023/06/21 04:51:32;;;;;;;5.93;4.90;;;;;;;20.54;44.79;99449.25;4959320;28;20053;-71
2023/06/21 04:54:00;;;;;;;14.32;5.90;;;;;;;20.95;44.33;99447.97;4974108;28;20054;-69
2023/06/21 04:56:27;;;;;;;10.75;6.18;;;;;;;21.29;44.06;99471.09;4958962;28;20042;-70
2023/06/21 04:58:52;;;;;;;10.02;5.20;;;;;;;21.65;43.38;99452.31;4958597;28;20065;-69
2023/06/21 05:01:17;;;;;;;8.27;5.65;;;;;;;21.98;42.70;99445.53;4958969;28;20046;-70
2023/06/21 05:03:47;;;;;;;10.07;5.75;;;;;;;22.37;41.54;99436.19;4958766;28;20397;-73
2023/06/21 05:06:12;;;;;;;8.38;5.30;;;;;;;22.79;40.63;99438.19;4958915;28;20081;-72
2023/06/21 05:08:38;;;;;;;7.43;5.60;;;;;;;23.14;40.55;99444.59;4941159;28;20050;-72
2023/06/21 05:11:03;;;;;;;8.98;5.63;;;;;;;23.44;39.68;99453.44;4959836;28;20061;-72
2023/06/21 05:13:28;;;;;;;7.80;5.82;;;;;;;23.73;38.75;99433.38;4957096;28;20046;-73
2023/06/21 05:15:53;;;;;;;7.75;5.00;;;;;;;23.98;38.45;99437.31;4958721;28;20049;-73
2023/06/21 05:18:21;;;;;;;9.80;5.57;;;;;;;23.90;37.72;99440.22;4958830;28;20057;-73
2023/06/21 05:20:47;;;;;;;7.22;4.95;;;;;;;23.66;38.12;99435.22;4957401;28;20045;-72
2023/06/21 05:23:12;;;;;;;5.25;4.60;;;;;;;23.75;38.57;99439.47;4940993;28;20057;-72
2023/06/21 05:25:37;;;;;;;8.00;5.40;;;;;;;23.66;37.89;99455.13;4941509;28;20058;-73
2023/06/21 05:28:02;;;;;;;18.45;6.47;;;;;;;23.54;38.24;99448.53;4958559;28;20496;-72
2023/06/21 05:30:28;;;;;;;9.45;5.90;;;;;;;23.29;38.52;99453.53;4958525;28;20042;-73
2023/06/21 05:32:53;;;;;;;6.72;5.22;;;;;;;22.84;38.97;99449.31;4958568;28;20034;-73
2023/06/21 05:35:18;;;;;;;8.00;5.05;;;;;;;22.39;39.67;99445.00;4957094;28;20065;-74
2023/06/21 05:37:43;;;;;;;8.55;5.55;;;;;;;22.35;40.01;99468.97;4925136;28;20071;-74
2023/06/21 05:40:10;;;;;;;9.55;5.25;;;;;;;22.72;39.48;99443.50;4957304;28;20058;-73
2023/06/21 05:42:36;;;;;;;6.43;5.28;;;;;;;22.93;38.49;99437.28;4941053;28;20038;-74
2023/06/21 05:45:01;;;;;;;9.85;5.30;;;;;;;23.20;38.27;99442.97;4958755;28;20045;-73
2023/06/21 05:47:31;;;;;;;10.30;5.43;;;;;;;23.20;38.07;99440.25;4957231;28;20034;-73
2023/06/21 05:49:57;;;;;;;8.80;4.90;;;;;;;22.91;38.51;99450.22;4958255;28;20046;-72
2023/06/21 05:52:22;;;;;;;5.75;4.80;;;;;;;22.53;39.15;99446.00;4958010;28;20049;-73
2023/06/21 05:54:47;;;;;;;8.10;5.38;;;;;;;22.29;39.84;99463.47;4956908;28;20046;-74
2023/06/21 05:57:12;;;;;;;8.88;5.65;;;;;;;22.95;39.68;99446.09;4958066;28;20053;-73
2023/06/21 05:59:38;;;;;;;8.63;5.93;;;;;;;23.95;37.86;99445.88;4958138;28;20049;-74
2023/06/21 06:02:05;;;;;;;6.35;5.00;;;;;;;25.17;36.42;99448.69;4956571;28;20092;-73
2023/06/21 06:04:30;;;;;;;11.90;6.28;;;;;;;26.38;33.59;99379.84;4958108;28;20047;-74
2023/06/21 06:06:56;;;;;;;6.95;4.93;;;;;;;26.44;32.60;99371.78;4957042;28;20050;-74
2023/06/21 06:09:21;;;;;;;8.35;5.20;;;;;;;25.87;33.36;99376.19;4956326;28;20428;-74
2023/06/21 06:11:46;;;;;;;10.95;5.53;;;;;;;25.07;34.49;99380.06;4958000;28;20057;-75
2023/06/21 06:14:11;;;;;;;8.98;6.15;;;;;;;24.27;35.58;99381.75;4956628;28;20758;-76
2023/06/21 06:16:38;;;;;;;12.68;5.38;;;;;;;23.57;36.50;99382.84;4957863;28;20046;-75
2023/06/21 06:19:04;;;;;;;7.57;5.13;;;;;;;23.05;37.72;99388.66;4956309;28;20537;-76
2023/06/21 06:21:29;;;;;;;7.38;4.88;;;;;;;23.67;36.53;99385.19;4957528;28;20073;-74
2023/06/21 06:23:54;;;;;;;5.53;4.47;;;;;;;24.88;33.77;99377.06;4956084;28;20042;-73
2023/06/21 06:26:25;;;;;;;5.53;4.57;;;;;;;26.18;30.70;99389.16;4955866;28;20062;-72
2023/06/21 06:28:51;;;;;;;6.70;4.07;;;;;;;27.50;29.37;99370.00;4972626;28;20042;-71
2023/06/21 06:31:24;;;;;;;6.40;4.07;;;;;;;28.80;27.69;99370.56;4957475;28;20517;-73
2023/06/21 06:33:50;;;;;;;5.75;4.30;;;;;;;29.98;26.59;99373.22;4957486;28;20049;-73
2023/06/21 06:36:15;;;;;;;4.97;3.85;;;;;;;30.45;25.90;99370.31;4939941;28;20058;-74
2023/06/21 06:38:41;;;;;;;11.60;4.78;;;;;;;30.76;25.90;99369.84;4957543;28;20038;-72
2023/06/21 06:41:06;;;;;;;8.23;5.03;;;;;;;30.22;25.43;99376.75;4957408;28;20054;-72
2023/06/21 06:43:33;;;;;;;8.52;4.35;;;;;;;29.22;26.24;99374.13;4956936;28;20038;-74
2023/06/21 06:45:58;;;;;;;7.57;4.60;;;;;;;28.11;27.16;99375.44;4972355;28;20413;-76
2023/06/21 06:48:25;;;;;;;7.60;4.00;;;;;;;27.18;28.72;99390.28;4957233;28;20042;-74
2023/06/21 06:50:50;;;;;;;4.95;4.32;;;;;;;26.57;29.69;99382.66;4972381;28;20049;-74
2023/06/21 06:53:15;;;;;;;7.63;4.75;;;;;;;26.37;30.38;99389.09;4956747;28;20050;-74
2023/06/21 06:55:41;;;;;;;6.72;4.10;;;;;;;27.49;28.45;99387.47;4956756;28;20076;-73
2023/06/21 06:58:06;;;;;;;5.00;4.20;;;;;;;28.90;25.92;99385.38;4938822;28;20050;-74
2023/06/21 07:00:31;;;;;;;5.88;4.63;;;;;;;30.52;24.73;99382.00;4956714;28;20050;-76
2023/06/21 07:02:57;;;;;;;5.78;3.95;;;;;;;31.97;23.32;99393.06;4955260;28;20485;-73
2023/06/21 07:05:23;;;;;;;5.75;4.40;;;;;;;33.33;22.27;99390.25;4954839;28;20046;-73
2023/06/21 07:07:49;;;;;;;6.75;4.10;;;;;;;34.38;20.97;99393.16;4939213;28;20408;-73
2023/06/21 07:10:14;;;;;;;7.05;4.80;;;;;;;35.40;20.09;99381.19;4955659;28;20409;-75
2023/06/21 07:12:39;;;;;;;16.58;5.80;;;;;;;36.32;19.82;99387.41;4972187;28;20050;-75
2023/06/21 07:15:05;;;;;;;6.60;4.28;;;;;;;37.12;18.48;99390.84;4955578;28;20054;-75
2023/06/21 07:17:30;;;;;;;6.60;5.57;;;;;;;37.69;18.31;99387.34;4956755;28;20042;-75
2023/06/21 07:19:55;;;;;;;10.25;5.03;;;;;;;38.01;18.15;99388.66;4955274;28;20087;-74
2023/06/21 07:22:20;;;;;;;6.65;4.68;;;;;;;38.28;17.79;99391.69;4949512;28;20489;-75
2023/06/21 07:24:46;;;;;;;6.20;4.97;;;;;;;38.75;17.17;99385.22;4956779;28;20055;-76
2023/06/21 07:27:12;;;;;;;11.43;4.72;;;;;;;39.14;16.92;99387.75;4954414;28;20077;-78
2023/06/21 07:29:37;;;;;;;12.90;5.18;;;;;;;39.20;16.20;99382.88;4957465;28;20043;-75
2023/06/21 07:32:02;;;;;;;4.95;4.47;;;;;;;38.86;16.72;99400.66;4956077;28;20046;-76
2023/06/21 07:34:29;;;;;;;5.65;4.63;;;;;;;38.95;16.31;99392.44;4956342;28;20056;-77
2023/06/21 07:36:54;;;;;;;6.30;4.95;;;;;;;39.06;16.31;99396.75;4957515;28;20060;-75
2023/06/21 07:39:19;;;;;;;8.88;4.90;;;;;;;39.48;16.63;99397.81;4957488;28;20489;-75
2023/06/21 07:41:44;;;;;;;4.97;4.57;;;;;;;39.98;15.72;99398.84;4957235;28;20054;-75
2023/06/21 07:44:10;;;;;;;5.22;4.72;;;;;;;40.86;15.18;99397.56;4956524;28;20410;-76
2023/06/21 07:46:35;;;;;;;5.65;5.07;;;;;;;41.91;14.09;99394.38;4958671;28;20042;-75
2023/06/21 07:49:01;;;;;;;7.78;5.70;;;;;;;42.21;13.85;99389.94;4957112;28;20068;-76
2023/06/21 07:51:26;;;;;;;7.30;6.60;;;;;;;42.15;13.75;99388.41;4956353;28;20050;-77
2023/06/21 07:53:51;;;;;;;14.98;6.90;;;;;;;41.98;13.71;99380.78;4957323;28;20612;-75
2023/06/21 07:56:16;;;;;;;6.70;5.55;;;;;;;41.69;13.60;99386.88;4957359;28;20057;-77
2023/06/21 07:58:42;;;;;;;8.25;5.53;;;;;;;40.91;14.07;99383.47;4942707;28;20072;-75
2023/06/21 08:01:08;;;;;;;6.53;5.85;;;;;;;40.45;14.47;99388.41;4968175;28;20057;-75
2023/06/21 08:03:34;;;;;;;7.22;5.85;;;;;;;40.71;14.50;99371.94;4971117;28;20057;-76
2023/06/21 08:05:59;;;;;;;13.55;7.68;;;;;;;41.38;14.38;99386.81;4960975;28;20046;-76
2023/06/21 08:08:24;;;;;;;10.38;6.97;;;;;;;42.37;14.40;99393.97;4951754;28;20050;-77
2023/06/21 08:10:50;;;;;;;8.65;6.38;;;;;;;41.89;14.31;99383.50;4936326;28;20053;-76
2023/06/21 08:13:18;;;;;;;7.65;5.68;;;;;;;41.61;14.30;99387.66;4947621;28;20046;-76
2023/06/21 08:15:44;;;;;;;6.53;5.75;;;;;;;41.85;14.27;99388.13;4941879;28;20046;-76
2023/06/21 08:18:09;;;;;;;9.02;6.40;;;;;;;42.57;13.75;99395.31;4939397;28;20402;-74
2023/06/21 08:20:34;;;;;;;7.13;6.18;;;;;;;43.31;13.81;99390.47;4940366;28;20054;-76
2023/06/21 08:22:59;;;;;;;7.53;6.53;;;;;;;43.98;13.27;99378.59;4940846;28;20046;-74
2023/06/21 08:25:24;;;;;;;7.78;7.18;;;;;;;44.01;12.60;99383.56;4941092;28;20055;-76
2023/06/21 08:27:50;;;;;;;7.03;6.50;;;;;;;43.52;13.05;99379.34;4954858;28;20046;-75
2023/06/21 08:30:15;;;;;;;7.00;6.40;;;;;;;43.52;12.77;99384.16;4958895;28;20524;-77
2023/06/21 08:32:40;;;;;;;7.25;6.55;;;;;;;43.46;13.11;99380.69;4958784;28;20057;-75
2023/06/21 08:35:06;;;;;;;7.20;6.57;;;;;;;43.53;13.26;99378.19;4959794;28;20046;-75
2023/06/21 08:37:31;;;;;;;10.07;7.68;;;;;;;44.06;13.20;99379.72;4959929;28;20069;-74
2023/06/21 08:39:57;;;;;;;10.60;7.28;;;;;;;44.87;12.33;99390.69;4959332;28;20041;-75
2023/06/21 08:42:24;;;;;;;9.27;8.57;;;;;;;45.34;12.27;99380.03;4959439;28;20061;-75
2023/06/21 08:44:50;;;;;;;9.52;8.68;;;;;;;45.86;11.90;99385.91;4957624;28;20054;-74
2023/06/21 08:47:17;;;;;;;10.65;9.95;;;;;;;46.41;11.70;99378.94;4959461;28;20046;-75
2023/06/21 08:49:46;;;;;;;10.73;9.82;;;;;;;46.95;11.60;99382.28;4959459;28;20034;-76
2023/06/21 08:52:20;;;;;;;12.38;11.57;;;;;;;47.39;11.02;99382.38;4957373;28;20425;-76
2023/06/21 08:54:50;;;;;;;11.77;10.98;;;;;;;47.61;11.05;99380.97;4959339;28;20053;-77
2023/06/21 08:57:28;;;;;;;10.98;10.18;;;;;;;47.75;11.12;99381.34;4975422;28;20053;-77
2023/06/21 08:59:59;;;;;;;12.10;11.20;;;;;;;47.43;11.20;99386.09;4958658;28;20042;-76
2023/06/21 09:02:46;;;;;;;12.40;11.70;;;;;;;48.36;11.32;99384.56;4958140;28;20058;-77
2023/06/21 09:05:20;;;;;;;13.82;12.43;;;;;;;47.76;10.77;99373.69;4959384;28;20638;-77
2023/06/21 09:07:46;;;;;;;13.70;12.40;;;;;;;47.85;11.28;99366.72;4958453;28;20841;-77
2023/06/21 09:10:18;;;;;;;14.10;13.10;;;;;;;48.04;10.56;99371.63;4957907;28;20447;-78
2023/06/21 09:12:44;;;;;;;12.80;11.88;;;;;;;46.80;11.17;99374.56;4959745;28;20046;-77
2023/06/21 09:15:11;;;;;;;10.73;9.70;;;;;;;45.74;11.62;99359.72;4959205;28;20046;-77
2023/06/21 09:17:38;;;;;;;11.63;10.88;;;;;;;46.06;11.53;99370.09;4942178;28;20053;-76
2023/06/21 09:20:04;;;;;;;13.32;12.23;;;;;;;46.58;11.17;99366.59;4959363;28;20042;-75
2023/06/21 09:22:31;;;;;;;14.32;13.43;;;;;;;47.23;10.94;99359.72;4959993;28;20065;-77
2023/06/21 09:24:56;;;;;;;12.98;11.75;;;;;;;47.04;11.41;99367.22;4959622;28;20818;-78
2023/06/21 09:27:22;;;;;;;12.10;11.20;;;;;;;46.65;11.14;99366.81;4960039;28;20053;-76
2023/06/21 09:29:48;;;;;;;11.55;10.40;;;;;;;45.49;11.30;99356.81;4974384;28;20130;-77
2023/06/21 09:32:13;;;;;;;10.20;9.50;;;;;;;45.59;11.52;99352.78;4959346;28;20053;-77
2023/06/21 09:34:38;;;;;;;12.02;11.13;;;;;;;46.26;11.58;99366.41;4957168;28;20623;-76
2023/06/21 09:37:04;;;;;;;11.32;10.63;;;;;;;46.29;11.57;99364.84;4957279;28;20050;-74
2023/06/21 09:39:29;;;;;;;11.63;10.70;;;;;;;46.16;11.62;99358.38;4958496;28;20042;-74
2023/06/21 09:41:55;;;;;;;11.30;10.30;;;;;;;45.61;11.68;99361.69;4958379;28;20054;-75
2023/06/21 09:44:20;;;;;;;14.27;10.98;;;;;;;45.03;11.75;99354.31;4956895;28;20050;-75
2023/06/21 09:46:57;;;;;;;9.75;9.05;;;;;;;45.21;11.66;99362.25;4958169;28;20057;-75
2023/06/21 09:49:26;;;;;;;10.52;9.25;;;;;;;43.31;12.09;99356.78;4958272;28;20048;-75
2023/06/21 09:51:51;;;;;;;8.23;7.57;;;;;;;41.04;13.05;99337.03;4958585;28;20409;-74
2023/06/21 09:54:16;;;;;;;7.05;6.35;;;;;;;39.01;14.13;99338.31;4956627;28;20386;-75
2023/06/21 09:56:42;;;;;;;7.15;5.63;;;;;;;38.38;15.26;99346.16;4958202;28;20046;-75
2023/06/21 09:59:15;;;;;;;7.15;5.70;;;;;;;39.36;15.07;99339.66;4973219;28;20038;-73
2023/06/21 10:01:47;;;;;;;;;;;;;;;41.91;14.23;99350.41;4959027;28;20050;-75
2023/06/21 10:04:14;;;;;;;7.97;7.38;;;;;;;42.99;12.71;99346.91;4958294;28;19918;-78
2023/06/21 10:06:50;;;;;;;7.82;7.22;;;;;;;44.64;11.99;99361.22;4973214;28;20050;-75
2023/06/21 10:09:15;;;;;;;9.23;8.27;;;;;;;45.40;11.59;99338.38;4956088;28;20069;-73
2023/06/21 10:11:43;;;;;;;11.57;10.68;;;;;;;45.81;11.06;99348.72;4973051;28;20057;-76
2023/06/21 10:14:20;;;;;;;10.27;9.63;;;;;;;46.78;11.31;99353.50;4968498;28;20050;-76
2023/06/21 10:16:55;;;;;;;14.25;13.02;;;;;;;47.71;10.58;99352.16;4977415;28;20050;-74
2023/06/21 10:19:23;;;;;;;14.35;13.43;;;;;;;48.10;10.33;99350.38;4959234;28;20042;-74
2023/06/21 10:21:51;;;;;;;16.50;15.43;;;;;;;48.36;10.26;99355.44;4944976;28;20053;-74
2023/06/21 10:24:18;;;;;;;14.85;14.05;;;;;;;47.68;10.49;99358.53;4955733;28;20065;-76
2023/06/21 10:26:44;;;;;;;14.15;13.25;;;;;;;47.27;10.71;99354.19;4955949;28;20071;-75
2023/06/21 10:29:12;;;;;;;14.98;14.07;;;;;;;47.57;10.66;99351.78;4967872;28;20400;-74
2023/06/21 10:31:39;;;;;;;14.52;13.63;;;;;;;46.47;10.90;99354.16;4956532;28;20425;-74
2023/06/21 10:34:08;;;;;;;12.55;11.60;;;;;;;44.50;11.39;99355.84;4957303;28;20049;-70
2023/06/21 10:36:36;;;;;;;9.07;8.30;;;;;;;41.73;12.67;99354.28;4923847;28;20054;-70
2023/06/21 10:39:08;;;;;;;7.15;6.60;;;;;;;39.25;13.62;99340.16;4968859;28;20037;-73
2023/06/21 10:41:34;;;;;;;6.00;5.50;;;;;;;36.79;14.90;99336.91;4920411;28;20155;-72
2023/06/21 10:44:02;;;;;;;8.15;5.57;;;;;;;34.80;16.29;99340.38;4957000;28;20034;-70
2023/06/21 10:46:28;;;;;;;6.43;4.75;;;;;;;33.06;17.67;99336.94;4955510;28;20130;-70
2023/06/21 10:48:55;;;;;;;4.78;4.10;;;;;;;31.56;18.28;99333.75;4936049;28;20050;-73
2023/06/21 10:51:21;;;;;;;4.22;3.92;;;;;;;30.18;19.53;99340.63;4951873;28;20066;-70
2023/06/21 10:53:48;;;;;;;5.35;4.47;;;;;;;29.09;20.79;99342.25;4952217;28;20045;-71
2023/06/21 10:56:16;;;;;;;5.45;3.83;;;;;;;28.26;21.74;99331.22;4956229;28;20042;-70
2023/06/21 10:58:43;;;;;;;6.05;3.95;;;;;;;27.52;21.99;99343.22;4950530;28;20079;-73
2023/06/21 11:01:08;;;;;;;4.05;3.40;;;;;;;26.95;23.59;99347.94;4972057;28;20053;-73
2023/06/21 11:03:34;;;;;;;4.25;3.78;;;;;;;26.50;23.90;99347.19;4965899;28;20493;-74
2023/06/21 11:06:26;;;;;;;5.47;3.80;;;;;;;26.33;23.42;99349.56;4956658;28;20045;-73
2023/06/21 11:08:52;;;;;;;4.13;3.70;;;;;;;25.65;24.12;99351.06;4953547;28;20042;-73
2023/06/21 11:11:36;;;;;;;5.05;4.05;;;;;;;25.42;24.24;99354.22;4956233;28;20042;-74
2023/06/21 11:14:02;;;;;;;6.03;3.70;;;;;;;24.69;24.98;99344.34;4947518;28;20042;-73
2023/06/21 11:16:34;;;;;;;8.60;3.53;;;;;;;24.32;25.29;99345.72;4967749;28;20046;-74
2023/06/21 11:19:08;;;;;;;4.30;3.45;;;;;;;24.24;26.57;99335.84;4970850;28;20492;-74
2023/06/21 11:21:40;;;;;;;4.20;3.25;;;;;;;24.14;26.60;99340.81;4956511;28;20057;-76
2023/06/21 11:24:09;;;;;;;4.20;3.80;;;;;;;24.02;26.46;99346.00;4955036;28;20054;-75
2023/06/21 11:27:02;;;;;;;3.92;3.13;;;;;;;24.12;26.37;99349.19;4954339;28;20054;-74
2023/06/21 11:30:09;;;;;;;5.00;3.83;;;;;;;24.00;27.00;99339.91;4953534;28;20427;-75